EGMD METAR and TAF | Updated Today

EGMD METAR

Lydd Airport

Observation time: 7 min. ago

EGMD 251920Z AUTO 24016KT 9999 SCT012/// 15/13 Q1016

Need help? Read our tutorial on how to read METARs or read the parsed version below.

Lydd Airport (EGMD) METAR

  • Weather conditions on Wed, 25 May 2022 19:20:00 +0000 (7 min. ago):
  • Present conditions: Dry
  • Clouds: Scattered at 366 meters
  • Visibility: Greater than 10 km
  • Wind: 240 degrees at 16 knots
  • Temperature: 15 celsius
  • Dew point: 13 celsius
  • Pressure: 1016 millibars
  • Remarks: None


Useful to know...

EGMD TAF

Lydd Airport

TAF EGMD 251655Z 2518/2603 24014KT 9999 SCT020 PROB30 TEMPO 2518/2519 9000 SHRA BKN014
Observation time: 2:32 hr. ago
Need help? Read our tutorial on how to read TAFs or read the parsed version below.

Parsed version of TAF for Lydd Airport (EGMD)

  • From 25 May at 18:00 UTC, to day 26 of the month at 03:00 UTC
  • Clouds: Scattered at 610 meters
  • Visibility: Greater than 10 km
  • Wind: 240 degrees at 14
  • Expected to arise temporarily, from 25 May at 18:00 UTC, to day 25 of the month at 19:00 UTC
    Probability of 30%
  • Clouds: Broken sky at 427 meters
  • Visibility: 9000 meters
  • Other: Showers of rain